Collins, Iowa
Current Conditions -  °F | °C
As of 3:07 AM on Friday 19 Dec 2014 (Local Time) from KAMW Reporting Station
Overcast Overcast  
Wind Chill: 21°   Ceiling: 1400
Heat Index: 26°   Visibility: 8mi
Dew Point: 22°   Wind: 5mph
Humidity: 84%   Direction: 130°SE
Pressure: 30.26"   Gusts: NA
Location:  41.9°N, 93.31°W
Report Text: KAMW 190907Z AUTO 13004KT 8SM OVC014 M03/M06 A3026 RMK AO2 T10331056
Loading
Personal Weather Stations






























Interactive Weather Map New forecast layout! Learn more

10-Day Weather Forecast

Advertisements
Track Severe Weather on mobile